Time;durP1;ratioP1;P1;durP2;ratioP2;P2;SDS_P1;SDS_P2;PMS_P1;PMS_P2;Temp;Humidity;BMP_temperature;BMP_pressure;BME280_temperature;BME280_humidity;BME280_pressure;Samples;Min_cycle;Max_cycle;Signal;HPM_P1;HPM_P2
2021/12/26 00:01:24;;;;;;;1.90;1.70;;;21.60;59.20;;;;;;5055350;28;20480;-64
2021/12/26 00:03:51;;;;;;;2.07;1.70;;;21.60;58.60;;;;;;5055353;28;20465;-64
2021/12/26 00:06:21;;;;;;;2.00;1.50;;;21.60;58.50;;;;;;5055351;28;20445;-66
2021/12/26 00:08:49;;;;;;;1.93;1.77;;;21.60;58.50;;;;;;5055321;28;20991;-65
2021/12/26 00:11:17;;;;;;;2.40;1.90;;;21.60;58.50;;;;;;5055275;28;20449;-66
2021/12/26 00:13:45;;;;;;;2.00;1.80;;;21.60;58.50;;;;;;5055331;28;20441;-65
2021/12/26 00:16:12;;;;;;;2.30;2.00;;;21.60;58.40;;;;;;5055250;28;20959;-64
2021/12/26 00:18:42;;;;;;;1.97;1.77;;;21.60;58.40;;;;;;5054989;28;20466;-65
2021/12/26 00:21:09;;;;;;;2.10;1.70;;;21.60;58.40;;;;;;5055085;28;20571;-64
2021/12/26 00:23:35;;;;;;;1.60;1.50;;;21.60;58.40;;;;;;5055085;28;20449;-65
2021/12/26 00:26:02;;;;;;;2.70;1.50;;;21.50;58.30;;;;;;5054928;28;20449;-64
2021/12/26 00:28:29;;;;;;;1.70;1.60;;;21.50;58.30;;;;;;5055102;28;20445;-63
2021/12/26 00:30:57;;;;;;;1.53;1.43;;;21.50;58.30;;;;;;5054885;28;20441;-64
2021/12/26 00:33:25;;;;;;;1.97;1.60;;;21.50;58.20;;;;;;5054904;28;20531;-65
2021/12/26 00:35:52;;;;;;;1.73;1.63;;;21.50;58.20;;;;;;5054895;28;20448;-65
2021/12/26 00:38:19;;;;;;;1.90;1.67;;;21.50;58.30;;;;;;5054871;28;20442;-64
2021/12/26 00:40:46;;;;;;;1.67;1.57;;;21.50;58.20;;;;;;5054545;28;20444;-65
2021/12/26 00:43:13;;;;;;;1.80;1.70;;;21.50;58.20;;;;;;5054464;28;20496;-65
2021/12/26 00:45:40;;;;;;;1.83;1.50;;;21.50;58.20;;;;;;5054429;28;20466;-64
2021/12/26 00:48:09;;;;;;;2.07;1.70;;;21.50;58.20;;;;;;5054448;28;20491;-66
2021/12/26 00:50:38;;;;;;;1.50;1.37;;;21.50;58.20;;;;;;5054278;28;20461;-65
2021/12/26 00:53:05;;;;;;;1.60;1.50;;;21.50;58.20;;;;;;5054594;28;20445;-66
2021/12/26 00:55:32;;;;;;;1.70;1.40;;;21.50;58.20;;;;;;5054520;28;20437;-65
2021/12/26 00:57:59;;;;;;;1.60;1.50;;;21.50;58.20;;;;;;5054517;28;20523;-64
2021/12/26 01:00:29;;;;;;;1.70;1.60;;;21.50;58.20;;;;;;5054354;28;20433;-64
2021/12/26 01:02:56;;;;;;;1.87;1.77;;;21.50;58.10;;;;;;5054369;28;21003;-65
2021/12/26 01:05:26;;;;;;;1.37;1.27;;;21.50;58.10;;;;;;5054252;28;20447;-65
2021/12/26 01:07:57;;;;;;;1.37;1.27;;;21.50;58.10;;;;;;5054055;28;20441;-65
2021/12/26 01:10:26;;;;;;;1.37;1.20;;;21.50;58.10;;;;;;5054199;28;20450;-66
2021/12/26 01:12:54;;;;;;;2.80;1.80;;;21.50;58.10;;;;;;5054264;28;20781;-64
2021/12/26 01:15:23;;;;;;;1.30;1.00;;;21.50;58.10;;;;;;5054073;28;20473;-65
2021/12/26 01:17:55;;;;;;;1.63;1.53;;;21.50;58.10;;;;;;5053720;28;20527;-64
2021/12/26 01:20:39;;;;;;;1.47;1.27;;;21.40;58.00;;;;;;5053975;28;20480;-65
2021/12/26 01:23:06;;;;;;;1.40;1.20;;;21.50;58.10;;;;;;5053998;28;20834;-65
2021/12/26 01:25:33;;;;;;;1.50;1.40;;;21.50;58.10;;;;;;5053931;28;20802;-65
2021/12/26 01:27:59;;;;;;;1.50;1.40;;;21.40;57.90;;;;;;5053832;28;20512;-66
2021/12/26 01:30:26;;;;;;;1.87;1.27;;;21.40;57.90;;;;;;5053747;28;20445;-64
2021/12/26 01:32:53;;;;;;;1.50;1.00;;;21.40;58.00;;;;;;5053691;28;20449;-66
2021/12/26 01:35:20;;;;;;;1.57;1.47;;;21.40;57.90;;;;;;5053668;28;20445;-65
2021/12/26 01:37:48;;;;;;;1.53;1.20;;;21.40;57.90;;;;;;5053651;28;20441;-64
2021/12/26 01:40:16;;;;;;;1.67;1.20;;;21.40;57.90;;;;;;5053711;28;20433;-65
2021/12/26 01:42:43;;;;;;;1.57;1.27;;;21.40;57.90;;;;;;5053644;28;20521;-65
2021/12/26 01:45:11;;;;;;;1.60;1.40;;;21.40;57.90;;;;;;5053516;28;20437;-66
2021/12/26 01:47:38;;;;;;;2.00;1.30;;;21.40;57.90;;;;;;5053320;28;20525;-66
2021/12/26 01:50:05;;;;;;;1.70;1.40;;;21.50;57.90;;;;;;5053346;28;20480;-65
2021/12/26 01:52:32;;;;;;;1.20;1.10;;;21.50;57.80;;;;;;5053352;28;20440;-65
2021/12/26 01:55:20;;;;;;;1.37;1.27;;;21.50;57.80;;;;;;5053477;28;20444;-66
2021/12/26 01:57:48;;;;;;;2.27;1.30;;;21.50;57.80;;;;;;5053329;28;20515;-64
2021/12/26 02:00:15;;;;;;;1.20;1.10;;;21.40;57.80;;;;;;5053393;28;20481;-64
2021/12/26 02:02:42;;;;;;;1.40;1.30;;;21.40;57.70;;;;;;5053268;28;20492;-65
2021/12/26 02:05:09;;;;;;;1.60;1.17;;;21.50;57.80;;;;;;5053225;28;20873;-65
2021/12/26 02:07:36;;;;;;;1.20;1.10;;;21.50;57.80;;;;;;5053103;28;20445;-64
2021/12/26 02:10:05;;;;;;;1.50;1.40;;;21.40;57.70;;;;;;5053229;28;20445;-65
2021/12/26 02:12:32;;;;;;;1.33;1.23;;;21.40;57.70;;;;;;5053177;28;20912;-64
2021/12/26 02:14:59;;;;;;;1.30;1.20;;;21.40;58.20;;;;;;5053233;28;20438;-66
2021/12/26 02:17:28;;;;;;;1.60;1.37;;;21.40;57.60;;;;;;5052767;28;21018;-64
2021/12/26 02:20:14;;;;;;;1.70;1.50;;;21.40;57.70;;;;;;5053057;28;20455;-66
2021/12/26 02:22:45;;;;;;;4.70;1.10;;;21.50;57.60;;;;;;5053110;28;20538;-66
2021/12/26 02:25:27;;;;;;;4.77;1.17;;;21.40;57.60;;;;;;5053113;28;20442;-65
2021/12/26 02:27:52;;;;;;;1.23;1.13;;;21.40;57.60;;;;;;5053012;28;20495;-64
2021/12/26 02:30:20;;;;;;;1.40;1.27;;;21.40;57.60;;;;;;5052993;28;20433;-64
2021/12/26 02:32:48;;;;;;;1.60;1.07;;;21.50;57.60;;;;;;5052976;28;20210;-65
2021/12/26 02:35:18;;;;;;;1.43;1.33;;;21.40;57.50;;;;;;5052984;28;20500;-64
2021/12/26 02:37:45;;;;;;;1.20;1.00;;;21.50;57.50;;;;;;5053079;28;20445;-65
2021/12/26 02:40:13;;;;;;;1.30;1.00;;;21.40;57.50;;;;;;5053018;28;20446;-66
2021/12/26 02:42:40;;;;;;;1.47;1.20;;;21.40;57.50;;;;;;5052824;28;20500;-66
2021/12/26 02:45:07;;;;;;;1.30;1.20;;;21.40;57.40;;;;;;5052666;28;20917;-64
2021/12/26 02:47:37;;;;;;;1.40;1.00;;;21.40;57.50;;;;;;5052722;28;20444;-65
2021/12/26 02:50:06;;;;;;;1.43;1.30;;;21.40;57.50;;;;;;5052993;28;20446;-66
2021/12/26 02:52:35;;;;;;;1.53;1.27;;;21.40;57.40;;;;;;5052950;28;20782;-65
2021/12/26 02:55:02;;;;;;;1.30;1.00;;;21.40;57.50;;;;;;5052795;28;20785;-64
2021/12/26 02:57:29;;;;;;;1.60;1.10;;;21.40;57.40;;;;;;5052823;28;20437;-65
2021/12/26 02:59:56;;;;;;;1.40;1.10;;;21.40;57.50;;;;;;5053875;28;20438;-64
2021/12/26 03:02:22;;;;;;;1.30;1.20;;;21.40;57.40;;;;;;5056759;28;20864;-64
2021/12/26 03:04:49;;;;;;;1.20;1.10;;;21.40;57.40;;;;;;5056535;28;20441;-66
2021/12/26 03:07:16;;;;;;;1.17;0.93;;;21.40;57.40;;;;;;5056377;28;20448;-64
2021/12/26 03:09:47;;;;;;;1.13;1.03;;;21.40;57.90;;;;;;5056450;28;20793;-66
2021/12/26 03:12:14;;;;;;;1.10;0.90;;;21.40;57.30;;;;;;5056472;28;20952;-65
2021/12/26 03:14:41;;;;;;;7.60;1.60;;;21.40;57.40;;;;;;5056327;28;20433;-66
2021/12/26 03:17:08;;;;;;;1.27;1.17;;;21.40;57.30;;;;;;5056044;28;20469;-65
2021/12/26 03:19:36;;;;;;;1.40;1.03;;;21.40;57.30;;;;;;5056408;28;20440;-66
2021/12/26 03:22:03;;;;;;;1.27;1.00;;;21.40;57.30;;;;;;5056118;28;20450;-66
2021/12/26 03:24:30;;;;;;;1.00;0.80;;;21.40;57.40;;;;;;5056140;28;20429;-64
2021/12/26 03:27:03;;;;;;;1.73;1.10;;;21.40;57.30;;;;;;5055920;28;20433;-64
2021/12/26 03:29:30;;;;;;;1.10;0.90;;;21.40;57.30;;;;;;5056138;28;20445;-66
2021/12/26 03:31:57;;;;;;;1.57;1.10;;;21.40;57.30;;;;;;5056113;28;20446;-64
2021/12/26 03:34:24;;;;;;;1.80;1.13;;;21.40;57.20;;;;;;5056040;28;20468;-64
2021/12/26 03:36:52;;;;;;;2.33;1.07;;;21.40;57.20;;;;;;5055928;28;20441;-66
2021/12/26 03:39:20;;;;;;;1.20;0.90;;;21.40;57.20;;;;;;5055885;28;20539;-66
2021/12/26 03:41:47;;;;;;;1.10;0.90;;;21.40;57.20;;;;;;5055996;28;20446;-66
2021/12/26 03:44:16;;;;;;;1.97;1.30;;;21.40;57.20;;;;;;5055826;28;20565;-66
2021/12/26 03:46:43;;;;;;;1.60;1.30;;;21.40;57.20;;;;;;5055667;28;20785;-64
2021/12/26 03:49:10;;;;;;;1.30;1.10;;;21.40;57.20;;;;;;5055800;28;20445;-64
2021/12/26 03:51:37;;;;;;;1.27;1.10;;;21.40;57.20;;;;;;5055722;28;20467;-64
2021/12/26 03:54:06;;;;;;;1.20;0.90;;;21.40;57.20;;;;;;5055932;28;20445;-66
2021/12/26 03:56:33;;;;;;;1.07;0.83;;;21.40;57.70;;;;;;5055645;28;20445;-65
2021/12/26 03:59:00;;;;;;;1.20;1.10;;;21.40;57.10;;;;;;5055573;28;20442;-66
2021/12/26 04:01:28;;;;;;;1.40;1.03;;;21.40;57.10;;;;;;5055503;28;20445;-64
2021/12/26 04:03:55;;;;;;;1.10;1.00;;;21.40;57.10;;;;;;5055152;28;20571;-65
2021/12/26 04:06:22;;;;;;;1.83;1.07;;;21.40;57.10;;;;;;5055452;28;20479;-64
2021/12/26 04:08:49;;;;;;;1.10;0.90;;;21.40;57.00;;;;;;5055490;28;20442;-66
2021/12/26 04:11:16;;;;;;;1.37;1.00;;;21.40;57.00;;;;;;5055013;28;20788;-64
2021/12/26 04:13:43;;;;;;;1.07;0.93;;;21.40;57.10;;;;;;5055289;28;20449;-64
2021/12/26 04:16:10;;;;;;;1.40;1.00;;;21.40;57.00;;;;;;5055185;28;20442;-64
2021/12/26 04:18:38;;;;;;;1.17;0.93;;;21.40;57.10;;;;;;5055055;28;20468;-65
2021/12/26 04:21:06;;;;;;;1.10;0.90;;;21.40;57.00;;;;;;5055074;28;20465;-66
2021/12/26 04:23:33;;;;;;;1.17;1.00;;;21.40;57.10;;;;;;5054963;28;20544;-65
2021/12/26 04:25:59;;;;;;;1.10;1.00;;;21.40;57.00;;;;;;5055034;28;20452;-64
2021/12/26 04:28:26;;;;;;;1.20;1.03;;;21.40;57.00;;;;;;5055062;28;20955;-64
2021/12/26 04:30:53;;;;;;;1.33;1.07;;;21.40;57.00;;;;;;5055056;28;20442;-64
2021/12/26 04:33:20;;;;;;;3.23;1.10;;;21.40;57.00;;;;;;5055058;28;20442;-65
2021/12/26 04:35:49;;;;;;;1.40;1.00;;;21.40;56.90;;;;;;5054735;28;20819;-65
2021/12/26 04:38:16;;;;;;;1.83;0.80;;;21.40;56.90;;;;;;5054757;28;20441;-66
2021/12/26 04:40:43;;;;;;;1.20;1.10;;;21.40;56.90;;;;;;5054826;28;20460;-64
2021/12/26 04:43:09;;;;;;;1.00;0.80;;;21.40;56.80;;;;;;5054792;28;20488;-64
2021/12/26 04:45:36;;;;;;;1.50;1.07;;;21.40;56.80;;;;;;5054758;28;20455;-65
2021/12/26 04:48:03;;;;;;;1.10;0.93;;;21.40;56.90;;;;;;5054675;28;20779;-65
2021/12/26 04:50:30;;;;;;;1.10;1.00;;;21.40;56.90;;;;;;5054533;28;20465;-64
2021/12/26 04:52:58;;;;;;;1.43;1.10;;;21.40;56.90;;;;;;5054687;28;20448;-64
2021/12/26 04:55:28;;;;;;;1.30;1.03;;;21.40;56.90;;;;;;5054814;28;20856;-64
2021/12/26 04:57:55;;;;;;;1.20;1.00;;;21.40;56.90;;;;;;5054431;28;20452;-64
2021/12/26 05:00:26;;;;;;;1.10;0.90;;;21.40;56.90;;;;;;5054496;28;20472;-66
2021/12/26 05:02:53;;;;;;;1.33;0.90;;;21.30;56.80;;;;;;5054327;28;20871;-64
2021/12/26 05:05:20;;;;;;;1.63;1.00;;;21.30;56.80;;;;;;5054192;28;20451;-66
2021/12/26 05:07:47;;;;;;;1.10;0.93;;;21.40;56.90;;;;;;5054196;28;20437;-66
2021/12/26 05:10:18;;;;;;;3.00;1.00;;;21.40;56.90;;;;;;5054220;28;20441;-65
2021/12/26 05:12:45;;;;;;;1.20;1.10;;;21.40;56.90;;;;;;5054143;28;20441;-64
2021/12/26 05:15:13;;;;;;;1.07;0.87;;;21.40;56.90;;;;;;5054012;28;20437;-64
2021/12/26 05:17:41;;;;;;;1.80;0.93;;;21.30;56.70;;;;;;5053866;28;20473;-65
2021/12/26 05:20:09;;;;;;;1.10;1.00;;;21.30;56.80;;;;;;5054073;28;20465;-64
2021/12/26 05:22:36;;;;;;;1.60;1.00;;;21.40;56.80;;;;;;5053138;28;20438;-64
2021/12/26 05:25:06;;;;;;;1.10;0.80;;;21.40;56.90;;;;;;5053821;28;20811;-65
2021/12/26 05:27:34;;;;;;;1.20;0.90;;;21.40;56.80;;;;;;5053835;28;20528;-65
2021/12/26 05:30:01;;;;;;;1.00;0.80;;;21.40;56.80;;;;;;5054043;28;20446;-64
2021/12/26 05:32:28;;;;;;;1.20;1.00;;;21.40;56.80;;;;;;5053711;28;20442;-65
2021/12/26 05:34:55;;;;;;;1.20;1.10;;;21.40;56.80;;;;;;5053825;28;20443;-66
2021/12/26 05:37:22;;;;;;;1.10;0.80;;;21.40;56.80;;;;;;5053624;28;20452;-66
2021/12/26 05:39:48;;;;;;;1.27;1.07;;;21.30;56.70;;;;;;5053509;28;20448;-64
2021/12/26 05:42:16;;;;;;;1.20;0.90;;;21.30;56.70;;;;;;5053843;28;20444;-65
2021/12/26 05:44:45;;;;;;;1.03;0.90;;;21.30;56.70;;;;;;5053403;28;20807;-64
2021/12/26 05:47:13;;;;;;;1.67;0.80;;;21.30;56.70;;;;;;5053582;28;20513;-66
2021/12/26 05:49:40;;;;;;;1.00;0.80;;;21.30;56.70;;;;;;5053638;28;20435;-66
2021/12/26 05:52:08;;;;;;;1.10;0.90;;;21.30;56.60;;;;;;5053649;28;20430;-66
2021/12/26 05:54:35;;;;;;;1.30;0.90;;;21.40;56.70;;;;;;5053465;28;20445;-65
2021/12/26 05:57:03;;;;;;;1.10;0.93;;;21.40;56.70;;;;;;5053218;28;20444;-64
2021/12/26 05:59:30;;;;;;;1.20;1.10;;;21.40;56.70;;;;;;5053427;28;20449;-64
2021/12/26 06:01:58;;;;;;;1.23;0.93;;;21.40;56.70;;;;;;5053397;28;20472;-64
2021/12/26 06:04:25;;;;;;;1.10;1.00;;;21.40;56.60;;;;;;5053223;28;20481;-66
2021/12/26 06:06:52;;;;;;;1.00;0.80;;;21.40;56.60;;;;;;5053236;28;21001;-65
2021/12/26 06:09:19;;;;;;;1.23;1.00;;;21.40;56.60;;;;;;5053158;28;20790;-64
2021/12/26 06:11:46;;;;;;;0.90;0.80;;;21.40;56.60;;;;;;5053192;28;20453;-64
2021/12/26 06:14:13;;;;;;;1.17;1.03;;;21.40;56.60;;;;;;5053417;28;20460;-66
2021/12/26 06:16:39;;;;;;;1.20;0.90;;;21.40;56.60;;;;;;5052959;28;20438;-66
2021/12/26 06:19:07;;;;;;;1.57;1.10;;;21.40;56.60;;;;;;5053230;28;20437;-66
2021/12/26 06:21:34;;;;;;;1.20;0.93;;;21.40;56.50;;;;;;5052940;28;20846;-65
2021/12/26 06:24:01;;;;;;;1.10;0.90;;;21.40;56.50;;;;;;5052824;28;20496;-64
2021/12/26 06:26:30;;;;;;;1.73;1.00;;;21.40;56.50;;;;;;5053026;28;20442;-64
2021/12/26 06:28:57;;;;;;;1.23;1.00;;;21.40;56.50;;;;;;5053099;28;20433;-64
2021/12/26 06:31:24;;;;;;;1.43;1.00;;;21.40;56.50;;;;;;5053218;28;20440;-64
2021/12/26 06:33:51;;;;;;;1.20;1.10;;;21.40;56.50;;;;;;5053835;28;20436;-65
2021/12/26 06:36:19;;;;;;;1.00;0.80;;;21.40;56.50;;;;;;5057073;28;20441;-64
2021/12/26 06:38:46;;;;;;;1.10;0.90;;;21.40;56.50;;;;;;5057016;28;20771;-64
2021/12/26 06:41:15;;;;;;;1.20;0.83;;;21.40;56.50;;;;;;5057158;28;20445;-64
2021/12/26 06:43:43;;;;;;;1.23;0.83;;;21.40;56.60;;;;;;5056958;28;20477;-64
2021/12/26 06:46:10;;;;;;;1.57;1.10;;;21.40;56.80;;;;;;5056972;28;20437;-64
2021/12/26 06:48:39;;;;;;;1.33;1.00;;;21.40;56.50;;;;;;5057213;28;20442;-64
2021/12/26 06:51:06;;;;;;;1.30;0.97;;;21.40;56.50;;;;;;5056819;28;20453;-65
2021/12/26 06:53:34;;;;;;;1.10;0.90;;;21.40;56.50;;;;;;5056711;28;20437;-65
2021/12/26 06:56:01;;;;;;;1.20;0.80;;;21.40;56.50;;;;;;5056705;28;20430;-64
2021/12/26 06:58:28;;;;;;;1.30;1.07;;;21.40;56.50;;;;;;5056868;28;20441;-64
2021/12/26 07:00:54;;;;;;;1.10;0.80;;;21.40;56.50;;;;;;5056778;28;20434;-64
2021/12/26 07:03:21;;;;;;;1.30;0.90;;;21.40;56.50;;;;;;5056625;28;20480;-65
2021/12/26 07:05:48;;;;;;;1.37;1.10;;;21.30;56.40;;;;;;5056546;28;20810;-66
2021/12/26 07:08:14;;;;;;;1.10;0.90;;;21.40;56.50;;;;;;5056648;28;20434;-66
2021/12/26 07:10:44;;;;;;;1.30;1.10;;;21.40;56.50;;;;;;5056545;28;20446;-66
2021/12/26 07:13:10;;;;;;;1.30;0.90;;;21.40;56.50;;;;;;5056388;28;20515;-64
2021/12/26 07:15:37;;;;;;;1.00;0.83;;;21.40;56.40;;;;;;5056396;28;20445;-66
2021/12/26 07:18:05;;;;;;;1.20;0.83;;;21.40;56.50;;;;;;5056143;28;20515;-65
2021/12/26 07:20:32;;;;;;;1.00;0.80;;;21.40;56.40;;;;;;5056237;28;20819;-65
2021/12/26 07:22:58;;;;;;;1.07;0.90;;;21.40;56.50;;;;;;5056360;28;20438;-64
2021/12/26 07:25:25;;;;;;;1.20;1.00;;;21.40;56.40;;;;;;5056021;28;20481;-66
2021/12/26 07:27:53;;;;;;;1.10;0.90;;;21.40;56.40;;;;;;5056177;28;20445;-66
2021/12/26 07:30:20;;;;;;;1.20;1.07;;;21.40;56.40;;;;;;5056228;28;20464;-65
2021/12/26 07:32:47;;;;;;;1.10;0.90;;;21.40;56.40;;;;;;5056100;28;20436;-64
2021/12/26 07:35:13;;;;;;;1.23;1.13;;;21.40;56.40;;;;;;5055981;28;20433;-65
2021/12/26 07:37:40;;;;;;;1.20;1.10;;;21.40;56.40;;;;;;5055835;28;20444;-66
2021/12/26 07:40:09;;;;;;;1.50;0.90;;;21.40;56.50;;;;;;5055967;28;20441;-66
2021/12/26 07:42:36;;;;;;;1.53;0.83;;;21.40;56.40;;;;;;5055865;28;20480;-64
2021/12/26 07:45:04;;;;;;;1.13;1.03;;;21.40;56.40;;;;;;5055302;28;20488;-64
2021/12/26 07:47:31;;;;;;;1.00;0.90;;;21.40;56.40;;;;;;5055614;28;20442;-64
2021/12/26 07:49:58;;;;;;;1.30;1.20;;;21.40;56.40;;;;;;5055380;28;20817;-63
2021/12/26 07:52:29;;;;;;;1.50;0.90;;;21.40;56.40;;;;;;5055604;28;20478;-63
2021/12/26 07:54:56;;;;;;;1.17;1.00;;;21.40;57.00;;;;;;5055289;28;20496;-65
2021/12/26 07:57:23;;;;;;;1.20;1.00;;;21.40;56.40;;;;;;5055328;28;20437;-64
2021/12/26 07:59:49;;;;;;;1.10;0.80;;;21.40;56.40;;;;;;5055668;28;20778;-64
2021/12/26 08:02:20;;;;;;;1.00;0.90;;;21.40;56.20;;;;;;5055756;28;20442;-65
2021/12/26 08:04:48;;;;;;;1.47;1.07;;;21.40;55.90;;;;;;5055467;28;20504;-64
2021/12/26 08:07:15;;;;;;;1.17;1.07;;;21.40;55.70;;;;;;5055533;28;20445;-66
2021/12/26 08:09:42;;;;;;;5.67;1.90;;;21.40;56.20;;;;;;5055469;28;20438;-66
2021/12/26 08:12:10;;;;;;;6.20;1.40;;;21.30;58.80;;;;;;5055313;28;20437;-66
2021/12/26 08:14:36;;;;;;;5.93;1.93;;;21.30;60.60;;;;;;5055380;28;20434;-66
2021/12/26 08:17:04;;;;;;;5.53;2.00;;;21.30;60.70;;;;;;5055063;28;20469;-64
2021/12/26 08:19:32;;;;;;;4.50;1.40;;;21.30;61.00;;;;;;5055064;28;20426;-66
2021/12/26 08:21:59;;;;;;;4.23;1.80;;;21.40;61.20;;;;;;5055109;28;20438;-65
2021/12/26 08:24:26;;;;;;;3.90;1.93;;;21.40;61.90;;;;;;5054875;28;20547;-66
2021/12/26 08:26:54;;;;;;;2.90;1.40;;;21.40;61.70;;;;;;5054928;28;20471;-65
2021/12/26 08:29:21;;;;;;;4.50;1.73;;;21.40;61.70;;;;;;5055013;28;20444;-65
2021/12/26 08:31:49;;;;;;;1.70;1.40;;;21.40;61.60;;;;;;5054997;28;20444;-65
2021/12/26 08:34:19;;;;;;;6.60;1.77;;;21.40;61.30;;;;;;5054900;28;20524;-66
2021/12/26 08:36:49;;;;;;;4.23;1.40;;;21.40;60.80;;;;;;5054692;28;20464;-64
2021/12/26 08:39:16;;;;;;;2.90;1.60;;;21.50;60.30;;;;;;5054873;28;20441;-65
2021/12/26 08:41:43;;;;;;;3.57;1.33;;;21.40;60.10;;;;;;5054690;28;20916;-65
2021/12/26 08:44:16;;;;;;;1.87;1.10;;;21.40;59.80;;;;;;5054655;28;20477;-64
2021/12/26 08:46:43;;;;;;;5.20;2.43;;;21.40;59.10;;;;;;5054577;28;20450;-65
2021/12/26 08:49:10;;;;;;;4.23;1.40;;;21.30;57.90;;;;;;5054728;28;20437;-64
2021/12/26 08:51:37;;;;;;;4.77;1.60;;;21.30;56.60;;;;;;5054063;28;20799;-64
2021/12/26 08:54:05;;;;;;;4.43;1.50;;;21.30;56.80;;;;;;5054036;28;20429;-65
2021/12/26 08:56:33;;;;;;;2.70;1.50;;;21.40;56.90;;;;;;5054037;28;20433;-65
2021/12/26 08:58:59;;;;;;;4.07;1.77;;;21.40;56.70;;;;;;5052976;28;20433;-65
2021/12/26 09:01:26;;;;;;;3.40;1.67;;;21.50;56.80;;;;;;5054313;28;20441;-64
2021/12/26 09:03:54;;;;;;;1.33;1.17;;;21.60;56.80;;;;;;5054075;28;20444;-65
2021/12/26 09:06:21;;;;;;;3.30;1.50;;;21.60;56.70;;;;;;5054354;28;20429;-65
2021/12/26 09:08:47;;;;;;;5.30;1.30;;;21.70;56.60;;;;;;5053646;28;20437;-65
2021/12/26 09:11:16;;;;;;;1.80;1.20;;;21.70;56.50;;;;;;5053162;28;20440;-65
2021/12/26 09:13:43;;;;;;;1.83;1.10;;;21.80;56.50;;;;;;5052889;28;20438;-64
2021/12/26 09:16:10;;;;;;;2.80;1.60;;;21.80;56.40;;;;;;5053576;28;20429;-64
2021/12/26 09:18:36;;;;;;;3.27;1.80;;;21.80;56.30;;;;;;5054065;28;20477;-65
2021/12/26 09:21:03;;;;;;;2.03;1.27;;;21.80;56.30;;;;;;5053054;28;20468;-65
2021/12/26 09:23:30;;;;;;;1.67;1.20;;;21.90;56.30;;;;;;5053988;28;20441;-65
2021/12/26 09:25:57;;;;;;;2.60;1.60;;;21.90;56.20;;;;;;5053962;28;20885;-65
2021/12/26 09:28:28;;;;;;;1.80;1.63;;;21.90;56.10;;;;;;5053858;28;20809;-65
2021/12/26 09:30:55;;;;;;;1.63;0.97;;;21.90;56.20;;;;;;5053906;28;20757;-64
2021/12/26 09:33:22;;;;;;;1.63;1.20;;;21.90;56.10;;;;;;5053772;28;20452;-65
2021/12/26 09:35:49;;;;;;;1.77;1.37;;;21.90;56.10;;;;;;5053675;28;20437;-65
2021/12/26 09:38:16;;;;;;;1.50;1.40;;;21.90;56.10;;;;;;5053737;28;20441;-65
2021/12/26 09:40:43;;;;;;;1.20;1.10;;;21.90;56.10;;;;;;5053615;28;20502;-65
2021/12/26 09:43:10;;;;;;;1.80;1.30;;;22.00;56.00;;;;;;5053686;28;20792;-65
2021/12/26 09:45:38;;;;;;;2.53;1.20;;;22.00;56.00;;;;;;5053660;28;20481;-65
2021/12/26 09:48:05;;;;;;;1.20;1.00;;;22.00;56.00;;;;;;5053643;28;20448;-65
2021/12/26 09:50:32;;;;;;;1.97;1.20;;;22.00;56.00;;;;;;5053606;28;20796;-65
2021/12/26 09:52:59;;;;;;;2.80;1.40;;;22.00;55.90;;;;;;5053588;28;20444;-65
2021/12/26 09:55:28;;;;;;;1.67;1.33;;;22.00;55.90;;;;;;5053630;28;20445;-65
2021/12/26 09:57:55;;;;;;;1.70;1.23;;;22.00;55.90;;;;;;5053434;28;20460;-65
2021/12/26 10:00:25;;;;;;;1.60;1.13;;;22.00;55.90;;;;;;5053418;28;20460;-65
2021/12/26 10:03:14;;;;;;;1.60;1.30;;;22.00;55.90;;;;;;5053352;28;20529;-65
2021/12/26 10:06:00;;;;;;;1.30;1.13;;;22.00;55.90;;;;;;5053374;28;20493;-65
2021/12/26 10:08:28;;;;;;;1.10;0.90;;;22.00;55.80;;;;;;5052911;28;20441;-65
2021/12/26 10:11:09;;;;;;;1.40;1.30;;;22.00;55.80;;;;;;5053288;28;20441;-65
2021/12/26 10:13:41;;;;;;;1.80;1.50;;;22.10;55.80;;;;;;5053516;28;20911;-65
2021/12/26 10:16:08;;;;;;;1.77;1.20;;;22.00;55.80;;;;;;5053222;28;20449;-65
2021/12/26 10:18:39;;;;;;;1.37;1.00;;;22.00;55.80;;;;;;5053029;28;21053;-65
2021/12/26 10:21:30;;;;;;;3.93;2.30;;;22.10;55.80;;;;;;5053009;28;20933;-65
2021/12/26 10:24:00;;;;;;;1.40;1.27;;;22.10;55.80;;;;;;5053045;28;20430;-65
2021/12/26 10:26:30;;;;;;;1.50;1.33;;;22.00;55.70;;;;;;5053244;28;20452;-65
2021/12/26 10:29:08;;;;;;;1.30;1.20;;;22.10;55.80;;;;;;5053103;28;20440;-65
2021/12/26 10:31:37;;;;;;;1.77;1.50;;;22.10;55.70;;;;;;5053041;28;20444;-65
2021/12/26 10:34:05;;;;;;;2.60;1.30;;;22.00;55.70;;;;;;5052974;28;20438;-65
2021/12/26 10:36:31;;;;;;;1.60;1.20;;;22.10;55.70;;;;;;5052948;28;20449;-64
2021/12/26 10:39:09;;;;;;;1.50;1.30;;;22.10;55.70;;;;;;5053030;28;20441;-65
2021/12/26 10:41:42;;;;;;;1.40;1.23;;;22.10;55.70;;;;;;5053233;28;20799;-64
2021/12/26 10:44:18;;;;;;;1.40;1.20;;;22.10;55.60;;;;;;5052969;28;20994;-65
2021/12/26 10:46:48;;;;;;;1.63;1.53;;;22.10;55.60;;;;;;5052871;28;20439;-65
2021/12/26 10:49:38;;;;;;;1.50;1.23;;;22.10;55.60;;;;;;5053020;28;20454;-65
2021/12/26 10:52:12;;;;;;;4.70;1.50;;;22.10;55.60;;;;;;5052923;28;20433;-65
2021/12/26 10:54:41;;;;;;;2.40;1.40;;;22.10;55.60;;;;;;5052844;28;20804;-65
2021/12/26 10:57:12;;;;;;;1.30;1.13;;;22.10;55.60;;;;;;5052841;28;20437;-65
2021/12/26 10:59:44;;;;;;;1.40;1.30;;;22.10;55.60;;;;;;5052957;28;20442;-65
2021/12/26 11:02:20;;;;;;;1.30;1.20;;;22.10;55.60;;;;;;5052779;28;20441;-65
2021/12/26 11:04:55;;;;;;;1.30;0.93;;;22.10;55.60;;;;;;5052631;28;20503;-65
2021/12/26 11:07:22;;;;;;;1.33;1.20;;;22.10;55.60;;;;;;5052797;28;20444;-65
2021/12/26 11:10:02;;;;;;;1.17;1.07;;;22.10;55.60;;;;;;5052729;28;20445;-65
2021/12/26 11:12:48;;;;;;;1.13;1.00;;;22.20;55.60;;;;;;5052747;28;20445;-65
2021/12/26 11:15:16;;;;;;;3.47;1.20;;;22.10;55.60;;;;;;5052508;28;20444;-66
2021/12/26 11:17:48;;;;;;;1.30;1.20;;;22.10;56.60;;;;;;5052633;28;20477;-67
2021/12/26 11:20:33;;;;;;;1.57;1.47;;;22.10;57.30;;;;;;5052541;28;20458;-66
2021/12/26 11:23:09;;;;;;;1.30;1.17;;;22.10;58.20;;;;;;5055950;28;20441;-66
2021/12/26 11:25:36;;;;;;;1.20;1.10;;;22.00;58.30;;;;;;5056134;28;20485;-66
2021/12/26 11:28:03;;;;;;;1.30;1.10;;;22.00;56.80;;;;;;5056411;28;20441;-67
2021/12/26 11:30:30;;;;;;;1.70;1.40;;;22.00;56.40;;;;;;5056253;28;20464;-67
2021/12/26 11:32:58;;;;;;;1.97;1.30;;;22.00;56.50;;;;;;5056110;28;20433;-67
2021/12/26 11:35:29;;;;;;;5.17;1.50;;;22.00;57.90;;;;;;5055773;28;20434;-66
2021/12/26 11:37:56;;;;;;;1.10;0.97;;;22.00;58.40;;;;;;5064518;28;20433;-66
2021/12/26 11:40:23;;;;;;;2.80;1.40;;;22.10;58.40;;;;;;5064092;28;20784;-67
2021/12/26 11:43:21;;;;;;;2.90;1.60;;;22.00;57.90;;;;;;5065724;28;20437;-68
2021/12/26 11:45:58;;;;;;;2.73;1.50;;;22.00;58.50;;;;;;5055465;28;20900;-67
2021/12/26 11:49:01;;;;;;;2.67;1.70;;;21.90;58.00;;;;;;5059572;28;20434;-68
2021/12/26 11:51:44;;;;;;;1.97;1.40;;;21.90;58.00;;;;;;5055624;28;20488;-68
2021/12/26 11:54:43;;;;;;;2.80;1.60;;;21.80;58.00;;;;;;5065924;28;20495;-68
2021/12/26 11:57:22;;;;;;;3.60;1.30;;;21.80;57.90;;;;;;5062788;28;20503;-68
2021/12/26 12:00:07;;;;;;;2.00;1.60;;;21.80;58.00;;;;;;5055276;28;20438;-67
2021/12/26 12:02:36;;;;;;;1.60;1.30;;;21.80;57.90;;;;;;5057744;28;20499;-67
2021/12/26 12:05:17;;;;;;;3.67;1.50;;;21.80;57.90;;;;;;5066237;28;21485;-67
2021/12/26 12:07:51;;;;;;;1.43;1.30;;;21.80;57.90;;;;;;5064533;28;20907;-67
2021/12/26 12:10:48;;;;;;;1.60;1.33;;;21.80;57.90;;;;;;5064275;28;20857;-67
2021/12/26 12:13:46;;;;;;;1.50;1.40;;;21.80;57.80;;;;;;5065731;28;20520;-68
2021/12/26 12:16:13;;;;;;;2.10;1.47;;;21.80;57.80;;;;;;5072445;28;21028;-65
2021/12/26 12:18:54;;;;;;;3.10;1.63;;;21.80;57.80;;;;;;5066589;28;20473;-67
2021/12/26 12:21:22;;;;;;;6.40;2.60;;;21.80;57.20;;;;;;5070324;28;20513;-66
2021/12/26 12:24:02;;;;;;;4.13;1.90;;;21.40;56.70;;;;;;5075477;28;20444;-67
2021/12/26 12:26:54;;;;;;;2.73;1.80;;;21.20;57.00;;;;;;5075507;28;20874;-67
2021/12/26 12:29:50;;;;;;;4.50;2.50;;;21.10;57.90;;;;;;5060866;28;20445;-67
2021/12/26 12:32:19;;;;;;;1.83;1.60;;;21.20;58.00;;;;;;5075014;28;20813;-67
2021/12/26 12:34:50;;;;;;;5.53;1.80;;;21.20;58.00;;;;;;5075320;28;20463;-67
2021/12/26 12:37:36;;;;;;;1.70;1.60;;;21.30;58.00;;;;;;5075526;28;20459;-67
2021/12/26 12:40:20;;;;;;;2.53;1.70;;;21.40;57.90;;;;;;5075240;28;20501;-68
2021/12/26 12:43:05;;;;;;;2.20;1.60;;;21.40;57.90;;;;;;5075348;28;20524;-67
2021/12/26 12:46:08;;;;;;;4.50;2.10;;;21.50;57.90;;;;;;5075012;28;20472;-67
2021/12/26 12:48:40;;;;;;;2.07;1.37;;;21.50;57.90;;;;;;5075044;28;20930;-67
2021/12/26 12:51:37;;;;;;;2.13;1.37;;;21.50;57.90;;;;;;5075081;28;20460;-67
2021/12/26 12:54:17;;;;;;;1.93;1.77;;;21.50;57.80;;;;;;5073283;28;20472;-67
2021/12/26 12:56:47;;;;;;;4.40;1.97;;;21.50;57.90;;;;;;5068996;28;20505;-67
2021/12/26 12:59:35;;;;;;;1.70;1.53;;;21.30;56.70;;;;;;5054913;28;20465;-67
2021/12/26 13:02:06;;;;;;;1.87;1.70;;;21.20;57.70;;;;;;5054836;28;20535;-68